Airfield :
LOGIN :

Register | Disclaimer

   EN    FR    IT 

 










Legend :    VFR   Marginal VFR   IFR   Intensive IFR   Very Intensive IFR
Visi :
Ceiling :
>= 8 km
>= 3000ft
5 to 8 km
1000 to 3000 ft
1500m to 5 km
500 to 1000 ft
800 to 1500m
200 to 500 ft
< 800m
< 200 ft
Symbols :   Thunderstorms  Fog  Heavy snow  Heavy precipitations  Wind > 20 kt
SIGMETs :     Misc.  Thunderstorms  Icing  Turbulence  Mountain Waves  Volcanic Ashes






- Airport Elevation : 1000 ft
- IATA code : PEV


LHPP - Pécs Pogany

CURRENT METAR :
  • 090845Z 10003KT 9999 -RA OVC030 04/04 Q1010

EXPIRED METARs :
  • 090815Z 09003KT 9999 -RA BKN030 04/04 Q1010
  • 090745Z 07003KT 9999 -RA OVC030 03/03 Q1010
  • 090728Z 08003KT 9999 -RA OVC030 03/03 Q1011
  • 090645Z 08004KT 9999 BKN030 03/03 Q1010

TAF TAF LHPP
Valid from the 09 at 09:00 until the 09 at 18:00 UTC


090815Z 0909/0918 09006KT 9999 SCT030 BKN080
TEMPO 0909/0918 -RA OVC030



MET'MAP, your aeronautical weather chart ! - Copyright ORBIFLY December 2007 - Disclaimer

ORBIFLY MET'MAP TEAM :

Programming & Development : Alexandra Zaïnal
Concept & original design : Baudouin d'Aumeries
Assistance for programming : Marc-Olivier Méhu
Technical & hardware support : Manuel Goepfert

Contact : metmap@orbifly.com




SOURCES & CREDITS :

   NOAA